CheckWX is a tool to help pilots better visualize weather data.  It is not intended as a substitute for an official pre-flight weather briefing.

07:59:17 UTC

KORD METAR
Chicago O'hare International Airport
Chicago, Illinois, USA
Current

1 hour ago

KORD 280651Z 32004KT 8SM OVC020 00/M02 A3005 RMK AO2 SNB09E38 SLP182 P0000 T00001022
Observed
Jan-28 @ 06:51 UTC
Wind
  • 320° at 4 KTS
Visibility
8 SM
Flight Rules
MVFR
Cloud Levels
  • Overcast at 2,000' AGL
Temperature
C / 32°F
Dewpoint
-2°C / 28°F
Humidity
87%
Altimeter
30.05" Hg
Pressure
1017.62 hPa
Current Rain
0.01"
Previous

2 hours ago

KORD 280551Z 28004KT 7SM OVC022 00/M02 A3005 RMK AO2 SLP183 60000 T00001017 10006 20000 400171028 53003
Observed
Jan-28 @ 05:51 UTC
Wind
  • 280° at 4 KTS
Visibility
7 SM
Flight Rules
MVFR
Cloud Levels
  • Overcast at 2,200' AGL
Temperature
C / 32°F
Dewpoint
-2°C / 28°F
Humidity
87%
Altimeter
30.05" Hg
Pressure
1017.62 hPa
Previous

3 hours ago

KORD 280451Z 31003KT 7SM OVC024 00/M02 A3004 RMK AO2 SNB17E51 SLP181 P0000 T00001022
Observed
Jan-28 @ 04:51 UTC
Wind
  • 310° at 3 KTS
Visibility
7 SM
Flight Rules
MVFR
Cloud Levels
  • Overcast at 2,400' AGL
Temperature
C / 32°F
Dewpoint
-2°C / 28°F
Humidity
87%
Altimeter
30.04" Hg
Pressure
1017.32 hPa
Current Rain
0.01"